Time;durP1;ratioP1;P1;durP2;ratioP2;P2;SDS_P1;SDS_P2;PMS_P1;PMS_P2;Temp;Humidity;BMP_temperature;BMP_pressure;BME280_temperature;BME280_humidity;BME280_pressure;Samples;Min_cycle;Max_cycle;Signal;HPM_P1;HPM_P2
2021/06/29 00:01:42;;;;;;;118.50;82.78;;;;;;;19.48;100.00;100743.16;5070967;28;20051;-84
2021/06/29 00:04:08;;;;;;;107.18;80.38;;;;;;;19.51;100.00;100746.28;5072036;28;20044;-88
2021/06/29 00:06:35;;;;;;;112.38;81.13;;;;;;;19.53;100.00;100743.31;5056865;28;20702;-85
2021/06/29 00:09:06;;;;;;;112.50;81.80;;;;;;;19.53;100.00;100741.41;5086616;28;20039;-86
2021/06/29 00:11:37;;;;;;;110.22;80.30;;;;;;;19.55;100.00;100738.50;5078901;28;20373;-86
2021/06/29 00:14:03;;;;;;;110.90;82.43;;;;;;;19.54;100.00;100737.66;5093279;28;20429;-86
2021/06/29 00:16:28;;;;;;;107.20;76.93;;;;;;;19.49;100.00;100747.56;5075562;28;20042;-87
2021/06/29 00:18:56;;;;;;;111.18;80.32;;;;;;;19.49;100.00;100751.09;5096292;28;20134;-87
2021/06/29 00:21:28;;;;;;;116.47;83.20;;;;;;;19.53;100.00;100748.75;5085728;28;20055;-86
2021/06/29 00:23:53;;;;;;;104.97;76.97;;;;;;;19.52;100.00;100736.22;5086632;28;20511;-87
2021/06/29 00:26:19;;;;;;;116.60;81.65;;;;;;;19.55;100.00;100739.31;5109866;28;20044;-86
2021/06/29 00:28:44;;;;;;;112.30;81.85;;;;;;;19.56;100.00;100735.56;5116438;27;20040;-88
2021/06/29 00:31:09;;;;;;;119.35;88.63;;;;;;;19.59;100.00;100732.38;5112865;28;20043;-87
2021/06/29 00:33:35;;;;;;;119.70;85.35;;;;;;;19.61;100.00;100732.13;5093141;28;20042;-87
2021/06/29 00:36:03;;;;;;;108.00;80.43;;;;;;;19.60;100.00;100734.03;5088913;28;20039;-87
2021/06/29 00:38:28;;;;;;;117.28;81.97;;;;;;;19.61;100.00;100734.84;5090621;28;20071;-86
2021/06/29 00:40:55;;;;;;;117.72;84.93;;;;;;;19.68;100.00;100735.66;5095156;28;20071;-88
2021/06/29 00:43:20;;;;;;;115.47;83.30;;;;;;;19.67;100.00;100735.88;5088561;28;20047;-87
2021/06/29 00:45:46;;;;;;;125.00;86.68;;;;;;;19.65;100.00;100732.50;5095079;28;20396;-86
2021/06/29 00:48:11;;;;;;;121.28;83.18;;;;;;;19.64;100.00;100734.41;5093889;28;20131;-88
2021/06/29 00:50:39;;;;;;;118.63;85.53;;;;;;;19.67;100.00;100738.59;5092579;28;20046;-85
2021/06/29 00:53:04;;;;;;;111.93;83.47;;;;;;;19.65;100.00;100727.97;5108263;28;20040;-85
2021/06/29 00:55:31;;;;;;;117.45;83.95;;;;;;;19.71;100.00;100732.50;5075838;28;20192;-86
2021/06/29 00:57:58;;;;;;;124.18;84.88;;;;;;;19.68;100.00;100729.38;5058395;28;20475;-85
2021/06/29 01:00:24;;;;;;;116.70;83.93;;;;;;;19.68;100.00;100732.09;5076255;28;20040;-88
2021/06/29 01:02:50;;;;;;;118.32;85.70;;;;;;;19.64;100.00;100728.97;5090831;27;20109;-87
2021/06/29 01:05:15;;;;;;;113.45;81.07;;;;;;;19.66;100.00;100728.78;5089294;28;20087;-87
2021/06/29 01:07:41;;;;;;;120.05;84.70;;;;;;;19.67;100.00;100722.28;5083958;28;20067;-87
2021/06/29 01:10:08;;;;;;;121.07;84.60;;;;;;;19.66;100.00;100721.44;5058729;28;21032;-84
2021/06/29 01:12:37;;;;;;;118.70;82.88;;;;;;;19.63;100.00;100723.75;5086833;28;20131;-86
2021/06/29 01:15:05;;;;;;;112.13;78.80;;;;;;;19.65;100.00;100713.47;5071464;28;20047;-85
2021/06/29 01:17:30;;;;;;;108.45;78.80;;;;;;;19.64;100.00;100711.81;5093039;28;20043;-86
2021/06/29 01:19:56;;;;;;;116.93;83.65;;;;;;;19.68;100.00;100710.31;5073680;28;20048;-87
2021/06/29 01:22:24;;;;;;;117.53;82.65;;;;;;;19.69;100.00;100706.56;5103820;28;20531;-87
2021/06/29 01:24:55;;;;;;;109.97;80.70;;;;;;;19.67;100.00;100704.03;5088317;28;20040;-86
2021/06/29 01:27:42;;;;;;;105.93;75.90;;;;;;;19.67;100.00;100708.66;5111263;28;20048;-85
2021/06/29 01:32:37;;;;;;;103.22;76.57;;;;;;;19.66;100.00;100699.66;5076126;28;20467;-89
2021/06/29 01:35:09;;;;;;;99.18;74.57;;;;;;;19.67;100.00;100708.66;5070695;28;20063;-87
2021/06/29 01:37:36;;;;;;;100.20;74.30;;;;;;;19.65;100.00;100705.28;5098852;28;20039;-87
2021/06/29 01:40:15;;;;;;;100.13;74.10;;;;;;;19.62;100.00;100712.03;5086735;28;20051;-87
2021/06/29 01:42:42;;;;;;;104.90;74.30;;;;;;;19.63;100.00;100710.16;5100335;28;20305;-87
2021/06/29 01:45:08;;;;;;;105.93;77.10;;;;;;;19.61;100.00;100703.03;5080045;28;20050;-87
2021/06/29 01:50:15;;;;;;;95.97;71.70;;;;;;;19.59;100.00;100688.84;5073625;28;20067;-86
2021/06/29 01:52:43;;;;;;;96.55;71.85;;;;;;;19.59;100.00;100694.28;5088549;28;20187;-86
2021/06/29 01:55:10;;;;;;;93.28;71.22;;;;;;;19.57;100.00;100693.66;5102497;28;20120;-86
2021/06/29 01:57:38;;;;;;;93.95;70.55;;;;;;;19.57;100.00;100688.22;5081537;28;20046;-86
2021/06/29 02:00:08;;;;;;;90.03;68.47;;;;;;;19.56;100.00;100689.28;5081533;28;20400;-87
2021/06/29 02:02:35;;;;;;;92.45;67.47;;;;;;;19.56;100.00;100683.84;5099437;28;20350;-87
2021/06/29 02:05:01;;;;;;;91.35;66.88;;;;;;;19.55;100.00;100693.03;5081707;28;20036;-86
2021/06/29 02:07:26;;;;;;;92.13;66.07;;;;;;;19.49;100.00;100702.13;5086780;28;20051;-85
2021/06/29 02:09:51;;;;;;;90.28;64.63;;;;;;;19.45;100.00;100697.34;5084725;28;20036;-87
2021/06/29 02:12:17;;;;;;;90.00;67.00;;;;;;;19.48;100.00;100703.19;5088886;28;20504;-86
2021/06/29 02:14:44;;;;;;;89.50;62.47;;;;;;;19.43;100.00;100699.47;5081416;28;20199;-86
2021/06/29 02:17:12;;;;;;;87.40;64.72;;;;;;;19.50;100.00;100698.31;5076915;28;20035;-87
2021/06/29 02:19:37;;;;;;;100.00;69.05;;;;;;;19.57;100.00;100701.00;5073526;28;20043;-87
2021/06/29 02:22:04;;;;;;;88.25;63.65;;;;;;;19.47;100.00;100698.78;5086583;28;20038;-86
2021/06/29 02:24:30;;;;;;;89.65;65.45;;;;;;;19.48;100.00;100688.72;5059241;28;20036;-87
2021/06/29 02:26:55;;;;;;;88.82;66.43;;;;;;;19.51;100.00;100686.41;5102262;28;20054;-86
2021/06/29 02:29:20;;;;;;;91.15;63.22;;;;;;;19.48;100.00;100684.13;5084097;28;20097;-88
2021/06/29 02:31:46;;;;;;;87.82;63.10;;;;;;;19.45;100.00;100687.31;5076459;28;20039;-86
2021/06/29 02:34:12;;;;;;;90.05;65.43;;;;;;;19.50;100.00;100679.28;5081667;28;20047;-86
2021/06/29 02:36:37;;;;;;;86.72;65.35;;;;;;;19.51;100.00;100683.69;5088629;28;20065;-85
2021/06/29 02:39:04;;;;;;;87.50;66.00;;;;;;;19.51;100.00;100689.13;5062188;28;20035;-87
2021/06/29 02:41:31;;;;;;;88.63;64.32;;;;;;;19.49;100.00;100684.97;5080657;28;20036;-87
2021/06/29 02:43:56;;;;;;;87.97;63.92;;;;;;;19.47;100.00;100674.28;5052792;28;20504;-87
2021/06/29 02:46:22;;;;;;;88.95;65.45;;;;;;;19.48;100.00;100673.25;5075558;28;20048;-85
2021/06/29 02:48:48;;;;;;;94.85;68.90;;;;;;;19.47;100.00;100671.56;5081348;28;20123;-87
2021/06/29 02:51:13;;;;;;;94.20;67.50;;;;;;;19.43;100.00;100680.44;5081886;28;20056;-87
2021/06/29 02:53:39;;;;;;;99.90;70.03;;;;;;;19.44;100.00;100687.53;5072330;28;20124;-86
2021/06/29 02:56:05;;;;;;;98.68;70.38;;;;;;;19.41;100.00;100685.25;5081797;28;20136;-86
2021/06/29 02:58:30;;;;;;;103.97;74.00;;;;;;;19.41;100.00;100680.63;5101512;28;20039;-87
2021/06/29 03:00:56;;;;;;;107.03;74.82;;;;;;;19.39;100.00;100685.47;5050458;28;20050;-88
2021/06/29 03:03:22;;;;;;;108.20;75.65;;;;;;;19.35;100.00;100670.66;5081778;28;20500;-87
2021/06/29 03:05:47;;;;;;;104.57;74.00;;;;;;;19.29;100.00;100669.66;5065269;28;20051;-86
2021/06/29 03:08:14;;;;;;;104.90;74.38;;;;;;;19.28;100.00;100676.19;5099772;28;20110;-85
2021/06/29 03:10:39;;;;;;;107.50;73.07;;;;;;;19.26;100.00;100677.44;5078681;28;20130;-86
2021/06/29 03:13:05;;;;;;;105.07;74.40;;;;;;;19.33;100.00;100673.63;5099906;28;20123;-86
2021/06/29 03:15:30;;;;;;;109.60;73.80;;;;;;;19.34;100.00;100682.59;5102463;28;20477;-85
2021/06/29 03:17:56;;;;;;;108.38;75.63;;;;;;;19.35;100.00;100681.53;5094246;28;20044;-86
2021/06/29 03:20:21;;;;;;;101.75;74.30;;;;;;;19.34;100.00;100683.44;5096833;28;20089;-86
2021/06/29 03:22:49;;;;;;;104.70;73.85;;;;;;;19.36;100.00;100675.88;5059551;28;20089;-85
2021/06/29 03:25:14;;;;;;;109.65;75.30;;;;;;;19.34;100.00;100678.00;5084766;28;20476;-86
2021/06/29 03:27:40;;;;;;;111.78;73.78;;;;;;;19.31;100.00;100669.47;5101998;28;20093;-87
2021/06/29 03:30:08;;;;;;;107.97;73.60;;;;;;;19.39;100.00;100672.72;5087370;28;20035;-86
2021/06/29 03:32:33;;;;;;;108.53;74.45;;;;;;;19.40;100.00;100668.09;5080641;28;20555;-87
2021/06/29 03:35:00;;;;;;;111.20;76.88;;;;;;;19.41;100.00;100664.31;5090482;28;20055;-88
2021/06/29 03:37:25;;;;;;;113.68;77.95;;;;;;;19.38;100.00;100648.44;5099674;28;20090;-86
2021/06/29 03:39:52;;;;;;;118.25;80.30;;;;;;;19.37;100.00;100657.66;5068294;28;20068;-86
2021/06/29 03:42:17;;;;;;;120.32;80.47;;;;;;;19.36;100.00;100656.00;5082998;28;20095;-86
2021/06/29 03:44:42;;;;;;;122.38;82.72;;;;;;;19.32;100.00;100660.22;5087058;28;20484;-85
2021/06/29 03:47:08;;;;;;;129.13;82.45;;;;;;;19.30;100.00;100646.00;5074646;28;20127;-86
2021/06/29 03:49:33;;;;;;;131.80;85.70;;;;;;;19.27;100.00;100632.84;5067598;28;20385;-87
2021/06/29 03:52:00;;;;;;;133.82;83.53;;;;;;;19.25;100.00;100634.97;5098423;28;20047;-85
2021/06/29 03:54:25;;;;;;;133.85;84.95;;;;;;;19.22;100.00;100630.84;5069544;28;20555;-87
2021/06/29 03:56:51;;;;;;;125.82;82.93;;;;;;;19.17;100.00;100623.34;5070676;28;20135;-86
2021/06/29 03:59:16;;;;;;;126.28;83.15;;;;;;;19.14;100.00;100618.34;5075320;28;20067;-88
2021/06/29 04:01:42;;;;;;;133.77;84.28;;;;;;;19.10;100.00;100627.16;5065538;28;20043;-85
2021/06/29 04:04:08;;;;;;;123.82;82.65;;;;;;;19.10;100.00;100632.59;5086272;28;20375;-84
2021/06/29 04:06:35;;;;;;;130.60;85.55;;;;;;;19.08;100.00;100632.84;5082920;28;20120;-86
2021/06/29 04:09:03;;;;;;;128.20;83.00;;;;;;;19.06;100.00;100639.56;5094067;28;20029;-85
2021/06/29 04:11:29;;;;;;;125.38;82.63;;;;;;;19.02;100.00;100636.47;5098050;28;20361;-88
2021/06/29 04:13:55;;;;;;;126.82;83.40;;;;;;;19.03;100.00;100640.84;5084084;28;20205;-87
2021/06/29 04:16:21;;;;;;;130.35;82.70;;;;;;;19.02;100.00;100638.31;5100935;28;20062;-86
2021/06/29 04:18:46;;;;;;;129.55;84.47;;;;;;;18.99;100.00;100628.75;5100427;28;20495;-85
2021/06/29 04:21:12;;;;;;;129.75;83.07;;;;;;;19.00;100.00;100622.25;5073894;28;20044;-85
2021/06/29 04:23:39;;;;;;;124.72;84.03;;;;;;;18.99;100.00;100614.31;5099143;28;20047;-84
2021/06/29 04:26:04;;;;;;;130.80;83.78;;;;;;;19.00;100.00;100616.00;5077237;28;20046;-85
2021/06/29 04:28:30;;;;;;;129.98;82.97;;;;;;;19.04;100.00;100620.75;5101450;28;20048;-85
2021/06/29 04:30:56;;;;;;;127.82;82.47;;;;;;;19.03;100.00;100618.25;5081463;28;20100;-86
2021/06/29 04:33:22;;;;;;;132.05;85.25;;;;;;;19.02;100.00;100622.88;5099409;28;20130;-88
2021/06/29 04:35:48;;;;;;;133.07;85.10;;;;;;;18.98;100.00;100616.19;5074295;28;20074;-85
2021/06/29 04:38:13;;;;;;;128.35;85.50;;;;;;;18.97;100.00;100616.44;5065853;28;20080;-87
2021/06/29 04:40:38;;;;;;;136.13;86.18;;;;;;;18.96;100.00;100622.91;5081887;28;20543;-86
2021/06/29 04:43:04;;;;;;;139.40;85.95;;;;;;;18.90;100.00;100617.34;5064823;28;20044;-85
2021/06/29 04:45:29;;;;;;;139.73;87.32;;;;;;;18.87;100.00;100620.50;5039499;28;20134;-86
2021/06/29 04:47:56;;;;;;;156.00;90.38;;;;;;;18.83;100.00;100621.16;5081983;28;20051;-86
2021/06/29 04:50:23;;;;;;;144.20;90.32;;;;;;;18.82;100.00;100628.50;5082922;28;20141;-86
2021/06/29 04:52:49;;;;;;;170.32;91.10;;;;;;;18.77;100.00;100638.38;5083055;28;20048;-84
2021/06/29 04:55:16;;;;;;;164.13;94.50;;;;;;;18.74;100.00;100641.53;5108680;28;20039;-87
2021/06/29 04:57:43;;;;;;;191.18;99.38;;;;;;;18.77;100.00;100646.53;5083764;28;20039;-86
2021/06/29 05:00:11;;;;;;;163.65;91.75;;;;;;;18.76;100.00;100634.81;5097551;28;20077;-84
2021/06/29 05:02:38;;;;;;;156.80;92.00;;;;;;;18.77;100.00;100638.38;5081089;28;20145;-85
2021/06/29 05:05:05;;;;;;;158.35;94.18;;;;;;;18.81;100.00;100632.25;5083305;28;20044;-84
2021/06/29 05:07:31;;;;;;;156.45;94.88;;;;;;;18.84;100.00;100625.53;5096643;28;20055;-84
2021/06/29 05:09:56;;;;;;;149.38;94.60;;;;;;;18.94;100.00;100631.31;5099739;28;20036;-84
2021/06/29 05:12:21;;;;;;;146.18;94.90;;;;;;;18.99;100.00;100628.75;5084669;28;20043;-84
2021/06/29 05:14:47;;;;;;;141.07;88.95;;;;;;;19.06;100.00;100632.22;5063519;28;20039;-84
2021/06/29 05:17:12;;;;;;;140.68;90.63;;;;;;;19.04;100.00;100625.34;5063933;28;20036;-84
2021/06/29 05:19:39;;;;;;;135.25;87.68;;;;;;;19.06;100.00;100634.94;5089110;28;20483;-84
2021/06/29 05:22:05;;;;;;;133.60;86.93;;;;;;;19.13;100.00;100635.75;5102568;28;20061;-83
2021/06/29 05:24:32;;;;;;;129.43;81.72;;;;;;;19.14;100.00;100645.53;5089894;28;20063;-83
2021/06/29 05:26:58;;;;;;;117.00;78.28;;;;;;;19.15;100.00;100647.19;5102396;28;20039;-83
2021/06/29 05:29:24;;;;;;;113.82;76.90;;;;;;;19.22;100.00;100649.00;5084517;28;20043;-84
2021/06/29 05:31:50;;;;;;;106.65;75.03;;;;;;;19.19;100.00;100644.03;5078594;28;20035;-84
2021/06/29 05:34:15;;;;;;;101.38;69.28;;;;;;;19.28;100.00;100642.69;5083343;28;20046;-84
2021/06/29 05:36:41;;;;;;;89.63;65.20;;;;;;;19.27;100.00;100630.97;5083320;28;20044;-84
2021/06/29 05:39:06;;;;;;;96.07;67.63;;;;;;;19.26;100.00;100621.16;5099254;28;20045;-84
2021/06/29 05:41:31;;;;;;;90.47;65.50;;;;;;;19.28;100.00;100626.38;5070006;28;20043;-84
2021/06/29 05:43:57;;;;;;;89.78;66.65;;;;;;;19.31;100.00;100628.66;5090934;28;20078;-84
2021/06/29 05:46:23;;;;;;;82.93;62.95;;;;;;;19.29;100.00;100628.84;5100799;27;20498;-84
2021/06/29 05:48:50;;;;;;;90.53;65.10;;;;;;;19.31;100.00;100623.22;5100088;28;20043;-84
2021/06/29 05:51:16;;;;;;;89.32;63.75;;;;;;;19.31;100.00;100626.75;5078444;28;20122;-84
2021/06/29 05:53:42;;;;;;;85.63;62.47;;;;;;;19.29;100.00;100623.41;5069814;28;20168;-84
2021/06/29 05:56:10;;;;;;;84.57;65.28;;;;;;;19.38;100.00;100621.22;5052490;28;20038;-84
2021/06/29 05:58:37;;;;;;;84.60;61.55;;;;;;;19.39;100.00;100621.03;5082212;28;20039;-84
2021/06/29 06:01:03;;;;;;;88.72;61.38;;;;;;;19.41;100.00;100619.94;5089068;28;20042;-84
2021/06/29 06:03:28;;;;;;;86.13;61.75;;;;;;;19.52;100.00;100620.03;5060540;28;20048;-84
2021/06/29 06:05:54;;;;;;;82.63;60.15;;;;;;;19.53;100.00;100629.84;5089132;28;20036;-84
2021/06/29 06:08:19;;;;;;;80.60;57.65;;;;;;;19.52;100.00;100621.91;5077565;28;20031;-84
2021/06/29 06:10:44;;;;;;;80.65;59.80;;;;;;;19.50;100.00;100624.84;5085375;28;20059;-84
2021/06/29 06:13:10;;;;;;;85.57;62.15;;;;;;;19.56;100.00;100621.25;5060520;27;20036;-87
2021/06/29 06:15:37;;;;;;;88.60;66.47;;;;;;;19.55;100.00;100611.41;5077824;28;20262;-87
2021/06/29 06:18:05;;;;;;;92.32;66.68;;;;;;;19.58;100.00;100630.00;5067595;28;20051;-85
2021/06/29 06:20:31;;;;;;;89.60;61.88;;;;;;;19.55;100.00;100629.63;5066762;28;20490;-85
2021/06/29 06:22:56;;;;;;;89.15;61.80;;;;;;;19.47;100.00;100628.03;5080277;28;20048;-85
2021/06/29 06:25:21;;;;;;;86.15;59.65;;;;;;;19.49;100.00;100620.47;5099165;28;20043;-86
2021/06/29 06:27:48;;;;;;;84.57;61.03;;;;;;;19.56;100.00;100623.97;5103446;28;20036;-86
2021/06/29 06:30:14;;;;;;;77.38;58.05;;;;;;;19.53;100.00;100624.41;5069519;28;20039;-87
2021/06/29 06:32:39;;;;;;;81.90;58.28;;;;;;;19.58;100.00;100631.88;5084669;28;20074;-85
2021/06/29 06:35:05;;;;;;;86.75;60.63;;;;;;;19.59;100.00;100633.53;5105144;28;20055;-85
2021/06/29 06:37:31;;;;;;;79.53;58.92;;;;;;;19.66;100.00;100628.06;5068134;28;20043;-86
2021/06/29 06:39:56;;;;;;;80.25;57.55;;;;;;;19.68;100.00;100626.78;5084787;28;20789;-84
2021/06/29 06:42:22;;;;;;;72.68;52.22;;;;;;;19.63;100.00;100623.06;5082124;28;20036;-86
2021/06/29 06:44:47;;;;;;;70.95;54.25;;;;;;;19.67;100.00;100637.88;5055054;28;20140;-84
2021/06/29 06:47:12;;;;;;;72.63;56.25;;;;;;;19.78;100.00;100637.13;5087433;28;20387;-87
2021/06/29 06:49:39;;;;;;;72.25;53.47;;;;;;;19.84;100.00;100641.66;5049794;28;20051;-84
2021/06/29 06:52:05;;;;;;;70.20;51.67;;;;;;;19.76;100.00;100636.50;5086433;28;20040;-85
2021/06/29 06:54:31;;;;;;;69.15;54.15;;;;;;;19.80;100.00;100640.47;5052384;28;20130;-86
2021/06/29 06:56:56;;;;;;;67.28;50.05;;;;;;;19.79;100.00;100641.50;5084546;28;20118;-87
2021/06/29 06:59:21;;;;;;;69.15;51.10;;;;;;;19.79;100.00;100645.06;5086637;28;20073;-86
2021/06/29 07:01:47;;;;;;;77.10;52.75;;;;;;;19.81;100.00;100642.94;5070458;28;20427;-86
2021/06/29 07:04:13;;;;;;;76.13;53.67;;;;;;;19.79;100.00;100644.22;5089033;28;20282;-85
2021/06/29 07:06:38;;;;;;;74.65;54.88;;;;;;;19.78;100.00;100640.66;5068066;28;20049;-86
2021/06/29 07:09:04;;;;;;;74.88;55.42;;;;;;;19.84;100.00;100641.66;5083179;28;20574;-84
2021/06/29 07:11:29;;;;;;;73.03;51.80;;;;;;;19.79;100.00;100636.06;5100088;28;20550;-84
2021/06/29 07:13:55;;;;;;;69.30;50.17;;;;;;;19.82;100.00;100641.03;5103730;28;20119;-86
2021/06/29 07:16:21;;;;;;;72.25;51.03;;;;;;;19.83;100.00;100634.56;5066864;28;20047;-85
2021/06/29 07:18:46;;;;;;;64.85;48.45;;;;;;;19.89;100.00;100633.63;5083383;28;20058;-87
2021/06/29 07:21:12;;;;;;;63.70;45.85;;;;;;;19.87;100.00;100630.31;5087017;28;20488;-86
2021/06/29 07:23:37;;;;;;;61.60;46.83;;;;;;;20.01;100.00;100631.78;5067805;28;20324;-87
2021/06/29 07:26:03;;;;;;;60.10;45.90;;;;;;;20.16;100.00;100638.72;5069970;28;20050;-84
2021/06/29 07:28:29;;;;;;;56.75;44.80;;;;;;;20.15;100.00;100637.06;5072386;28;20040;-85
2021/06/29 07:30:54;;;;;;;59.25;45.15;;;;;;;20.16;100.00;100633.25;5068955;28;20044;-87
2021/06/29 07:33:19;;;;;;;58.78;46.38;;;;;;;20.23;100.00;100634.84;5054177;28;20395;-87
2021/06/29 07:35:45;;;;;;;60.70;46.25;;;;;;;20.26;100.00;100634.38;5071057;28;20086;-87
2021/06/29 07:38:13;;;;;;;58.28;41.85;;;;;;;20.18;100.00;100631.16;5086770;28;20391;-87
2021/06/29 07:40:38;;;;;;;55.40;44.67;;;;;;;20.44;100.00;100627.19;5085950;28;20043;-85
2021/06/29 07:43:04;;;;;;;57.72;43.97;;;;;;;20.63;100.00;100627.97;5103205;28;20290;-86
2021/06/29 07:45:31;;;;;;;58.10;43.63;;;;;;;20.63;100.00;100628.81;5083990;28;20043;-86
2021/06/29 07:48:00;;;;;;;55.92;43.25;;;;;;;20.69;100.00;100621.59;5085488;28;20036;-87
2021/06/29 07:50:25;;;;;;;49.35;41.05;;;;;;;20.66;100.00;100627.50;5095399;28;20048;-85
2021/06/29 07:52:51;;;;;;;55.22;43.10;;;;;;;20.70;100.00;100629.53;5101453;28;20513;-86
2021/06/29 07:55:16;;;;;;;54.92;43.22;;;;;;;20.57;100.00;100623.44;5098564;28;20040;-88
2021/06/29 07:57:42;;;;;;;53.95;44.55;;;;;;;20.61;100.00;100627.38;5057882;28;20085;-84
2021/06/29 08:00:09;;;;;;;49.38;41.33;;;;;;;20.62;100.00;100620.84;5067341;28;20522;-86
2021/06/29 08:02:35;;;;;;;56.78;45.25;;;;;;;20.70;100.00;100620.50;5079869;28;20043;-88
2021/06/29 08:05:00;;;;;;;56.65;43.42;;;;;;;20.64;100.00;100618.72;5078948;28;20048;-83
2021/06/29 08:07:27;;;;;;;56.75;43.92;;;;;;;20.62;100.00;100631.75;5078449;28;20040;-88
2021/06/29 08:09:53;;;;;;;58.58;45.80;;;;;;;20.50;100.00;100635.25;5081166;28;20078;-85
2021/06/29 08:12:19;;;;;;;56.13;44.13;;;;;;;20.47;100.00;100635.72;5073493;28;20036;-87
2021/06/29 08:14:44;;;;;;;66.28;49.80;;;;;;;20.40;100.00;100629.56;5073217;28;20349;-84
2021/06/29 08:17:11;;;;;;;71.70;52.25;;;;;;;20.29;100.00;100633.09;5081244;28;20036;-88
2021/06/29 08:19:36;;;;;;;78.00;52.72;;;;;;;20.12;100.00;100632.91;5077839;28;20043;-85
2021/06/29 08:22:02;;;;;;;56.33;37.80;;;;;;;19.93;100.00;100637.53;5085748;28;20411;-85
2021/06/29 08:24:28;;;;;;;41.95;28.35;;;;;;;19.73;100.00;100634.25;5084320;28;20097;-86
2021/06/29 08:26:53;;;;;;;28.05;20.88;;;;;;;19.57;100.00;100633.78;5089066;28;20090;-83
2021/06/29 08:29:18;;;;;;;25.23;17.45;;;;;;;19.40;100.00;100638.16;5052564;28;20109;-84
2021/06/29 08:31:44;;;;;;;15.93;13.35;;;;;;;19.27;100.00;100641.84;5082673;28;20946;-85
2021/06/29 08:34:09;;;;;;;19.80;14.50;;;;;;;19.09;100.00;100644.56;5069143;28;20040;-83
2021/06/29 08:36:41;;;;;;;18.05;14.05;;;;;;;19.09;100.00;100652.72;5086290;28;20134;-83
2021/06/29 08:39:11;;;;;;;18.67;15.50;;;;;;;19.07;100.00;100643.94;5073834;28;20046;-84
2021/06/29 08:41:42;;;;;;;20.40;16.42;;;;;;;19.04;100.00;100650.66;5100263;28;20079;-85
2021/06/29 08:44:08;;;;;;;22.10;16.58;;;;;;;18.96;100.00;100650.97;5085205;28;20043;-85
2021/06/29 08:46:34;;;;;;;23.35;17.83;;;;;;;19.04;100.00;100645.22;5070245;28;20396;-84
2021/06/29 08:49:00;;;;;;;27.83;21.10;;;;;;;19.11;100.00;100654.16;5067340;28;20044;-83
2021/06/29 08:51:26;;;;;;;29.05;22.55;;;;;;;19.14;100.00;100651.00;5096336;28;20479;-82
2021/06/29 08:53:54;;;;;;;35.58;24.67;;;;;;;19.16;100.00;100643.44;5084302;28;20035;-83
2021/06/29 08:56:19;;;;;;;34.75;25.10;;;;;;;19.12;100.00;100653.09;5077665;28;20055;-83
2021/06/29 08:58:45;;;;;;;38.63;24.90;;;;;;;19.07;100.00;100635.78;5107195;28;20065;-83
2021/06/29 09:01:12;;;;;;;40.45;28.48;;;;;;;19.07;100.00;100642.03;5082148;28;20040;-82
2021/06/29 09:03:38;;;;;;;41.63;27.50;;;;;;;19.10;100.00;100638.91;5083145;28;20487;-83
2021/06/29 09:06:03;;;;;;;44.17;29.13;;;;;;;19.16;100.00;100637.16;5100759;28;20050;-83
2021/06/29 09:08:40;;;;;;;44.20;30.08;;;;;;;19.18;100.00;100640.47;5063730;28;20039;-83
2021/06/29 09:11:14;;;;;;;47.08;33.08;;;;;;;19.31;100.00;100634.91;5089892;28;20044;-83
2021/06/29 09:13:41;;;;;;;48.00;33.88;;;;;;;19.34;100.00;100639.91;5100174;28;20035;-83
2021/06/29 09:16:07;;;;;;;48.75;33.08;;;;;;;19.45;100.00;100641.06;5099247;28;20529;-83
2021/06/29 09:18:35;;;;;;;52.65;33.22;;;;;;;19.48;100.00;100637.88;5089808;28;20395;-83
2021/06/29 09:21:06;;;;;;;48.40;34.47;;;;;;;19.50;100.00;100645.78;5104613;28;20114;-83
2021/06/29 09:23:38;;;;;;;47.10;30.80;;;;;;;19.46;100.00;100636.44;5060701;28;20046;-83
2021/06/29 09:26:15;;;;;;;51.45;32.65;;;;;;;19.41;100.00;100636.28;5083669;28;20043;-83
2021/06/29 09:29:07;;;;;;;51.10;35.22;;;;;;;19.45;100.00;100635.59;5099624;28;20040;-83
2021/06/29 09:31:38;;;;;;;63.25;40.47;;;;;;;19.53;100.00;100629.00;5081830;28;20046;-83
2021/06/29 09:34:11;;;;;;;59.47;39.13;;;;;;;19.58;100.00;100640.88;5084820;28;20040;-84
2021/06/29 09:36:38;;;;;;;59.33;41.42;;;;;;;19.51;100.00;100640.13;5086010;28;20111;-83
2021/06/29 09:39:12;;;;;;;64.63;43.10;;;;;;;19.51;100.00;100636.59;5073691;28;20040;-83
2021/06/29 09:41:41;;;;;;;67.10;43.58;;;;;;;19.58;100.00;100645.50;5081532;28;20601;-83
2021/06/29 09:44:12;;;;;;;71.65;49.42;;;;;;;19.76;100.00;100631.06;5075845;28;20549;-83
2021/06/29 09:46:39;;;;;;;66.00;43.83;;;;;;;19.80;100.00;100632.28;5078825;28;20040;-83
2021/06/29 09:49:15;;;;;;;61.55;43.88;;;;;;;19.78;100.00;100626.22;5069060;28;20040;-83
2021/06/29 09:51:49;;;;;;;58.25;40.58;;;;;;;19.80;100.00;100624.94;5076739;28;20071;-83
2021/06/29 09:54:17;;;;;;;57.28;39.92;;;;;;;19.82;100.00;100631.00;5075697;28;20136;-83
2021/06/29 09:56:45;;;;;;;58.90;43.55;;;;;;;19.88;100.00;100636.56;5081133;28;20036;-83
2021/06/29 09:59:15;;;;;;;54.47;38.78;;;;;;;19.95;100.00;100626.44;5065002;28;20090;-83
2021/06/29 10:01:41;;;;;;;56.22;40.63;;;;;;;19.92;100.00;100626.91;5077423;28;20040;-83
2021/06/29 10:04:07;;;;;;;53.85;40.35;;;;;;;19.96;100.00;100623.47;5068333;28;20040;-83
2021/06/29 10:06:37;;;;;;;49.47;39.47;;;;;;;20.06;100.00;100629.22;5094571;28;20083;-85
2021/06/29 10:09:16;;;;;;;55.67;41.75;;;;;;;20.21;100.00;100627.97;5094700;28;20086;-85
2021/06/29 10:11:53;;;;;;;;;;;;;;;20.26;100.00;100625.38;5100466;28;20074;-84
2021/06/29 10:14:21;;;;;;;49.00;36.95;;;;;;;20.22;100.00;100635.06;5087243;28;19916;-84
2021/06/29 10:16:51;;;;;;;47.72;37.08;;;;;;;20.25;100.00;100627.28;5078885;28;20032;-85
2021/06/29 10:22:03;;;;;;;49.42;38.85;;;;;;;20.31;100.00;100633.66;5083607;28;20043;-86
2021/06/29 10:24:32;;;;;;;53.83;40.45;;;;;;;20.33;100.00;100626.09;5100870;28;20054;-86
2021/06/29 10:27:00;;;;;;;54.10;41.28;;;;;;;20.43;100.00;100633.72;5099662;28;20051;-85
2021/06/29 10:29:27;;;;;;;55.93;41.43;;;;;;;20.50;100.00;100632.53;5103579;28;20047;-86
2021/06/29 10:31:57;;;;;;;56.58;41.85;;;;;;;20.49;100.00;100630.88;5091137;28;20036;-86
2021/06/29 10:34:24;;;;;;;57.40;44.00;;;;;;;20.58;100.00;100627.84;5097658;28;20067;-86
2021/06/29 10:36:52;;;;;;;53.92;39.10;;;;;;;20.54;100.00;100626.63;5079776;28;20092;-85
2021/06/29 10:39:21;;;;;;;55.83;41.28;;;;;;;20.60;100.00;100625.69;5080062;28;20097;-86
2021/06/29 10:41:51;;;;;;;60.92;43.67;;;;;;;20.67;100.00;100630.00;5068286;28;20082;-86
2021/06/29 10:44:19;;;;;;;58.65;43.05;;;;;;;20.67;100.00;100627.25;5102568;28;20513;-86
2021/06/29 10:46:47;;;;;;;62.08;44.97;;;;;;;20.67;100.00;100637.34;5084310;28;20179;-86
2021/06/29 10:49:27;;;;;;;61.60;44.22;;;;;;;20.66;100.00;100632.97;5099156;28;20045;-86
2021/06/29 10:51:53;;;;;;;57.28;42.15;;;;;;;20.74;100.00;100632.59;5073302;28;20420;-86
2021/06/29 10:54:37;;;;;;;59.47;45.25;;;;;;;20.79;100.00;100627.28;5067119;28;20027;-86
2021/06/29 10:57:07;;;;;;;57.35;43.88;;;;;;;20.83;100.00;100630.34;5093855;28;20139;-86
2021/06/29 10:59:35;;;;;;;55.20;41.78;;;;;;;20.84;100.00;100623.84;5069350;28;20039;-86
2021/06/29 11:02:01;;;;;;;57.45;41.83;;;;;;;20.84;100.00;100624.69;5082891;28;20502;-87
2021/06/29 11:05:03;;;;;;;56.95;42.20;;;;;;;20.82;100.00;100621.34;5084598;28;20177;-86
2021/06/29 11:07:31;;;;;;;51.78;40.00;;;;;;;20.82;100.00;100632.25;5082423;28;20043;-86